sensor_id;sensor_type;location;lat;lon;timestamp;temperature;humidity
318;DHT22;146;53.448;10.228;2023-04-01T00:01:14;11.20;3.70
318;DHT22;146;53.448;10.228;2023-04-01T00:03:43;11.20;3.60
318;DHT22;146;53.448;10.228;2023-04-01T00:06:17;11.20;3.50
318;DHT22;146;53.448;10.228;2023-04-01T00:08:44;11.10;3.40
318;DHT22;146;53.448;10.228;2023-04-01T00:11:14;11.10;3.40
318;DHT22;146;53.448;10.228;2023-04-01T00:13:44;11.10;3.20
318;DHT22;146;53.448;10.228;2023-04-01T00:16:15;11.00;3.10
318;DHT22;146;53.448;10.228;2023-04-01T00:18:47;11.00;3.20
318;DHT22;146;53.448;10.228;2023-04-01T00:21:16;10.90;3.60
318;DHT22;146;53.448;10.228;2023-04-01T00:23:50;10.90;3.80
318;DHT22;146;53.448;10.228;2023-04-01T00:26:17;10.80;4.10
318;DHT22;146;53.448;10.228;2023-04-01T00:28:46;10.80;4.50
318;DHT22;146;53.448;10.228;2023-04-01T00:31:14;10.80;4.70
318;DHT22;146;53.448;10.228;2023-04-01T00:33:41;10.80;4.90
318;DHT22;146;53.448;10.228;2023-04-01T00:36:14;10.80;5.00
318;DHT22;146;53.448;10.228;2023-04-01T00:38:41;10.70;4.80
318;DHT22;146;53.448;10.228;2023-04-01T00:41:13;10.70;4.90
318;DHT22;146;53.448;10.228;2023-04-01T00:43:48;10.70;5.00
318;DHT22;146;53.448;10.228;2023-04-01T00:46:21;10.70;5.10
318;DHT22;146;53.448;10.228;2023-04-01T00:48:50;10.80;5.40
318;DHT22;146;53.448;10.228;2023-04-01T00:51:25;10.70;5.20
318;DHT22;146;53.448;10.228;2023-04-01T00:53:54;10.80;5.10
318;DHT22;146;53.448;10.228;2023-04-01T00:56:27;10.80;5.20
318;DHT22;146;53.448;10.228;2023-04-01T00:59:00;10.80;5.20
318;DHT22;146;53.448;10.228;2023-04-01T01:01:31;10.70;5.00
318;DHT22;146;53.448;10.228;2023-04-01T01:03:58;10.70;5.00
318;DHT22;146;53.448;10.228;2023-04-01T01:06:37;10.80;5.20
318;DHT22;146;53.448;10.228;2023-04-01T01:09:30;10.80;5.10
318;DHT22;146;53.448;10.228;2023-04-01T01:12:05;10.80;5.10
318;DHT22;146;53.448;10.228;2023-04-01T01:14:48;10.80;5.00
318;DHT22;146;53.448;10.228;2023-04-01T01:17:38;10.70;4.90
318;DHT22;146;53.448;10.228;2023-04-01T01:20:46;10.70;5.00
318;DHT22;146;53.448;10.228;2023-04-01T01:26:52;10.70;5.20
318;DHT22;146;53.448;10.228;2023-04-01T01:35:44;10.80;5.30
318;DHT22;146;53.448;10.228;2023-04-01T01:38:14;10.70;5.30
318;DHT22;146;53.448;10.228;2023-04-01T01:40:48;10.80;5.30
318;DHT22;146;53.448;10.228;2023-04-01T01:43:21;10.80;5.40
318;DHT22;146;53.448;10.228;2023-04-01T01:45:52;10.80;5.30
318;DHT22;146;53.448;10.228;2023-04-01T01:48:24;10.80;5.10
318;DHT22;146;53.448;10.228;2023-04-01T01:50:54;10.80;5.10
318;DHT22;146;53.448;10.228;2023-04-01T01:53:21;10.80;5.00
318;DHT22;146;53.448;10.228;2023-04-01T01:55:48;10.80;5.00
318;DHT22;146;53.448;10.228;2023-04-01T01:58:19;10.80;4.90
318;DHT22;146;53.448;10.228;2023-04-01T02:00:49;10.80;4.90
318;DHT22;146;53.448;10.228;2023-04-01T02:03:17;10.80;4.80
318;DHT22;146;53.448;10.228;2023-04-01T02:05:46;10.90;4.70
318;DHT22;146;53.448;10.228;2023-04-01T02:08:18;10.80;4.60
318;DHT22;146;53.448;10.228;2023-04-01T02:10:55;10.80;4.50
318;DHT22;146;53.448;10.228;2023-04-01T02:13:27;10.80;4.50
318;DHT22;146;53.448;10.228;2023-04-01T02:15:58;10.80;4.50
318;DHT22;146;53.448;10.228;2023-04-01T02:18:26;10.90;4.50
318;DHT22;146;53.448;10.228;2023-04-01T02:20:56;10.90;4.40
318;DHT22;146;53.448;10.228;2023-04-01T02:23:28;10.90;4.30
318;DHT22;146;53.448;10.228;2023-04-01T02:25:55;10.90;4.30
318;DHT22;146;53.448;10.228;2023-04-01T02:28:23;10.90;4.20
318;DHT22;146;53.448;10.228;2023-04-01T02:30:53;10.90;4.00
318;DHT22;146;53.448;10.228;2023-04-01T02:33:21;10.90;4.10
318;DHT22;146;53.448;10.228;2023-04-01T02:35:48;10.90;4.30
318;DHT22;146;53.448;10.228;2023-04-01T02:38:15;10.90;4.20
318;DHT22;146;53.448;10.228;2023-04-01T02:40:46;10.90;4.00
318;DHT22;146;53.448;10.228;2023-04-01T02:43:23;10.90;3.90
318;DHT22;146;53.448;10.228;2023-04-01T02:45:56;11.00;3.90
318;DHT22;146;53.448;10.228;2023-04-01T02:48:23;11.00;3.70
318;DHT22;146;53.448;10.228;2023-04-01T02:50:52;11.00;3.30
318;DHT22;146;53.448;10.228;2023-04-01T02:53:25;10.90;3.30
318;DHT22;146;53.448;10.228;2023-04-01T02:55:53;10.90;3.10
318;DHT22;146;53.448;10.228;2023-04-01T02:58:20;10.90;3.50
318;DHT22;146;53.448;10.228;2023-04-01T03:00:49;10.90;3.50
318;DHT22;146;53.448;10.228;2023-04-01T03:03:22;10.90;3.70
318;DHT22;146;53.448;10.228;2023-04-01T03:05:49;10.90;3.80
318;DHT22;146;53.448;10.228;2023-04-01T03:08:18;10.90;4.00
318;DHT22;146;53.448;10.228;2023-04-01T03:10:52;11.00;3.80
318;DHT22;146;53.448;10.228;2023-04-01T03:13:22;10.90;3.70
318;DHT22;146;53.448;10.228;2023-04-01T03:15:55;11.00;3.60
318;DHT22;146;53.448;10.228;2023-04-01T03:18:24;10.90;3.60
318;DHT22;146;53.448;10.228;2023-04-01T03:20:51;10.90;3.50
318;DHT22;146;53.448;10.228;2023-04-01T03:23:21;10.90;3.60
318;DHT22;146;53.448;10.228;2023-04-01T03:25:55;10.90;3.70
318;DHT22;146;53.448;10.228;2023-04-01T03:28:25;10.90;3.70
318;DHT22;146;53.448;10.228;2023-04-01T03:30:54;10.80;3.70
318;DHT22;146;53.448;10.228;2023-04-01T03:33:24;10.80;3.70
318;DHT22;146;53.448;10.228;2023-04-01T03:35:51;10.80;3.90
318;DHT22;146;53.448;10.228;2023-04-01T03:38:18;10.80;4.00
318;DHT22;146;53.448;10.228;2023-04-01T03:40:45;10.80;4.20
318;DHT22;146;53.448;10.228;2023-04-01T03:43:13;10.80;4.20
318;DHT22;146;53.448;10.228;2023-04-01T03:45:43;10.80;4.10
318;DHT22;146;53.448;10.228;2023-04-01T03:48:14;10.80;4.10
318;DHT22;146;53.448;10.228;2023-04-01T03:50:41;10.80;4.30
318;DHT22;146;53.448;10.228;2023-04-01T03:53:08;10.80;4.20
318;DHT22;146;53.448;10.228;2023-04-01T03:55:39;10.80;4.10
318;DHT22;146;53.448;10.228;2023-04-01T03:58:16;10.70;4.00
318;DHT22;146;53.448;10.228;2023-04-01T04:00:51;10.70;4.20
318;DHT22;146;53.448;10.228;2023-04-01T04:03:27;10.60;4.30
318;DHT22;146;53.448;10.228;2023-04-01T04:05:57;10.70;4.70
318;DHT22;146;53.448;10.228;2023-04-01T04:08:24;10.80;4.60
318;DHT22;146;53.448;10.228;2023-04-01T04:10:55;10.70;4.50
318;DHT22;146;53.448;10.228;2023-04-01T04:13:29;10.70;4.60
318;DHT22;146;53.448;10.228;2023-04-01T04:15:55;10.70;4.50
318;DHT22;146;53.448;10.228;2023-04-01T04:18:32;10.80;4.70
318;DHT22;146;53.448;10.228;2023-04-01T04:20:59;10.80;4.50
318;DHT22;146;53.448;10.228;2023-04-01T04:23:26;10.80;4.40
318;DHT22;146;53.448;10.228;2023-04-01T04:25:56;10.80;4.40
318;DHT22;146;53.448;10.228;2023-04-01T04:28:23;10.80;4.30
318;DHT22;146;53.448;10.228;2023-04-01T04:31:00;10.80;4.20
318;DHT22;146;53.448;10.228;2023-04-01T04:33:30;10.80;4.10
318;DHT22;146;53.448;10.228;2023-04-01T04:35:58;10.80;4.20
318;DHT22;146;53.448;10.228;2023-04-01T04:38:26;10.80;4.10
318;DHT22;146;53.448;10.228;2023-04-01T04:41:02;10.90;4.30
318;DHT22;146;53.448;10.228;2023-04-01T04:43:31;10.90;4.40
318;DHT22;146;53.448;10.228;2023-04-01T04:46:00;10.90;4.10
318;DHT22;146;53.448;10.228;2023-04-01T04:48:30;10.90;4.20
318;DHT22;146;53.448;10.228;2023-04-01T04:51:00;11.00;4.10
318;DHT22;146;53.448;10.228;2023-04-01T04:53:27;11.00;3.70
318;DHT22;146;53.448;10.228;2023-04-01T04:55:53;11.00;3.70
318;DHT22;146;53.448;10.228;2023-04-01T04:58:20;10.90;3.50
318;DHT22;146;53.448;10.228;2023-04-01T05:01:04;10.90;3.40
318;DHT22;146;53.448;10.228;2023-04-01T05:03:33;11.00;3.60
318;DHT22;146;53.448;10.228;2023-04-01T05:06:03;10.90;3.60
318;DHT22;146;53.448;10.228;2023-04-01T05:08:38;11.00;3.50
318;DHT22;146;53.448;10.228;2023-04-01T05:11:17;10.90;3.40
318;DHT22;146;53.448;10.228;2023-04-01T05:13:45;10.90;3.30
318;DHT22;146;53.448;10.228;2023-04-01T05:16:14;10.90;3.30
318;DHT22;146;53.448;10.228;2023-04-01T05:18:46;10.90;3.60
318;DHT22;146;53.448;10.228;2023-04-01T05:21:14;10.90;3.50
318;DHT22;146;53.448;10.228;2023-04-01T05:23:50;10.90;3.60
318;DHT22;146;53.448;10.228;2023-04-01T05:26:17;10.90;3.80
318;DHT22;146;53.448;10.228;2023-04-01T05:28:46;10.90;3.90
318;DHT22;146;53.448;10.228;2023-04-01T05:31:13;10.90;3.70
318;DHT22;146;53.448;10.228;2023-04-01T05:33:40;11.00;3.70
318;DHT22;146;53.448;10.228;2023-04-01T05:36:13;11.00;3.70
318;DHT22;146;53.448;10.228;2023-04-01T05:38:43;10.90;3.80
318;DHT22;146;53.448;10.228;2023-04-01T05:41:11;11.00;4.00
318;DHT22;146;53.448;10.228;2023-04-01T05:43:47;11.00;3.80
318;DHT22;146;53.448;10.228;2023-04-01T05:46:14;11.00;3.90
318;DHT22;146;53.448;10.228;2023-04-01T05:48:44;11.10;4.00
318;DHT22;146;53.448;10.228;2023-04-01T05:51:14;11.00;3.90
318;DHT22;146;53.448;10.228;2023-04-01T05:53:41;11.10;3.80
318;DHT22;146;53.448;10.228;2023-04-01T05:56:08;11.10;3.80
318;DHT22;146;53.448;10.228;2023-04-01T05:58:38;11.10;3.80
318;DHT22;146;53.448;10.228;2023-04-01T06:03:50;11.00;2.70
318;DHT22;146;53.448;10.228;2023-04-01T06:06:23;10.80;1.00
318;DHT22;146;53.448;10.228;2023-04-01T06:08:56;10.70;1.00
318;DHT22;146;53.448;10.228;2023-04-01T06:11:34;10.50;1.00
318;DHT22;146;53.448;10.228;2023-04-01T06:14:11;10.40;1.00
318;DHT22;146;53.448;10.228;2023-04-01T06:17:04;10.30;1.00
318;DHT22;146;53.448;10.228;2023-04-01T06:19:39;10.20;1.00
318;DHT22;146;53.448;10.228;2023-04-01T06:22:26;10.10;1.00
318;DHT22;146;53.448;10.228;2023-04-01T06:25:32;10.00;1.10
318;DHT22;146;53.448;10.228;2023-04-01T06:28:16;9.90;1.00
318;DHT22;146;53.448;10.228;2023-04-01T06:31:03;9.80;1.10
318;DHT22;146;53.448;10.228;2023-04-01T06:33:50;9.60;1.00
318;DHT22;146;53.448;10.228;2023-04-01T06:36:46;9.50;1.00
318;DHT22;146;53.448;10.228;2023-04-01T06:39:42;9.40;1.10
318;DHT22;146;53.448;10.228;2023-04-01T06:45:36;9.20;1.50
318;DHT22;146;53.448;10.228;2023-04-01T06:48:28;9.20;1.70
318;DHT22;146;53.448;10.228;2023-04-01T06:51:04;9.00;1.30
318;DHT22;146;53.448;10.228;2023-04-01T06:53:38;9.00;1.30
318;DHT22;146;53.448;10.228;2023-04-01T06:56:12;9.00;1.40
318;DHT22;146;53.448;10.228;2023-04-01T06:58:49;8.90;1.30
318;DHT22;146;53.448;10.228;2023-04-01T07:01:23;8.80;1.00
318;DHT22;146;53.448;10.228;2023-04-01T07:03:58;8.70;1.00
318;DHT22;146;53.448;10.228;2023-04-01T07:06:31;8.70;1.20
318;DHT22;146;53.448;10.228;2023-04-01T07:09:00;8.70;1.90
318;DHT22;146;53.448;10.228;2023-04-01T07:11:35;8.80;2.40
318;DHT22;146;53.448;10.228;2023-04-01T07:14:09;8.80;2.80
318;DHT22;146;53.448;10.228;2023-04-01T07:16:41;8.80;2.80
318;DHT22;146;53.448;10.228;2023-04-01T07:19:14;8.80;2.60
318;DHT22;146;53.448;10.228;2023-04-01T07:21:45;8.70;1.90
318;DHT22;146;53.448;10.228;2023-04-01T07:24:16;8.70;1.50
318;DHT22;146;53.448;10.228;2023-04-01T07:26:46;8.70;1.00
318;DHT22;146;53.448;10.228;2023-04-01T07:29:23;8.60;1.00
318;DHT22;146;53.448;10.228;2023-04-01T07:32:13;8.60;1.00
318;DHT22;146;53.448;10.228;2023-04-01T07:37:36;8.70;1.00
318;DHT22;146;53.448;10.228;2023-04-01T07:40:14;8.70;1.00
318;DHT22;146;53.448;10.228;2023-04-01T07:45:46;8.80;1.00
318;DHT22;146;53.448;10.228;2023-04-01T07:48:25;8.80;1.00
318;DHT22;146;53.448;10.228;2023-04-01T07:51:01;8.90;1.00
318;DHT22;146;53.448;10.228;2023-04-01T07:53:33;8.90;1.00
318;DHT22;146;53.448;10.228;2023-04-01T07:56:11;8.90;1.00
318;DHT22;146;53.448;10.228;2023-04-01T07:58:55;8.90;1.00
318;DHT22;146;53.448;10.228;2023-04-01T08:01:32;8.80;1.00
318;DHT22;146;53.448;10.228;2023-04-01T08:04:21;8.70;1.00
318;DHT22;146;53.448;10.228;2023-04-01T08:06:55;8.70;1.00
318;DHT22;146;53.448;10.228;2023-04-01T08:09:31;8.70;1.00
318;DHT22;146;53.448;10.228;2023-04-01T08:12:07;8.70;1.00
318;DHT22;146;53.448;10.228;2023-04-01T08:14:49;8.70;1.00
318;DHT22;146;53.448;10.228;2023-04-01T08:17:22;8.70;1.00
318;DHT22;146;53.448;10.228;2023-04-01T08:20:01;8.60;1.00
318;DHT22;146;53.448;10.228;2023-04-01T08:22:40;8.60;1.00
318;DHT22;146;53.448;10.228;2023-04-01T08:25:13;8.50;1.00
318;DHT22;146;53.448;10.228;2023-04-01T08:27:45;8.60;1.00
318;DHT22;146;53.448;10.228;2023-04-01T08:30:23;8.50;1.00
318;DHT22;146;53.448;10.228;2023-04-01T08:33:05;8.50;1.00
318;DHT22;146;53.448;10.228;2023-04-01T08:35:49;8.60;1.00
318;DHT22;146;53.448;10.228;2023-04-01T08:38:23;8.60;1.00
318;DHT22;146;53.448;10.228;2023-04-01T08:40:59;8.50;1.00
318;DHT22;146;53.448;10.228;2023-04-01T08:43:42;8.40;1.00
318;DHT22;146;53.448;10.228;2023-04-01T08:46:53;8.30;1.00
318;DHT22;146;53.448;10.228;2023-04-01T08:49:41;8.20;1.00
318;DHT22;146;53.448;10.228;2023-04-01T08:52:40;8.20;1.00
318;DHT22;146;53.448;10.228;2023-04-01T08:55:27;8.30;1.00
318;DHT22;146;53.448;10.228;2023-04-01T08:58:18;8.30;1.00
318;DHT22;146;53.448;10.228;2023-04-01T09:01:09;8.30;1.00
318;DHT22;146;53.448;10.228;2023-04-01T09:04:08;8.40;1.00
318;DHT22;146;53.448;10.228;2023-04-01T09:06:50;8.40;1.00
318;DHT22;146;53.448;10.228;2023-04-01T09:12:51;8.40;1.00
318;DHT22;146;53.448;10.228;2023-04-01T09:18:49;8.40;1.00
318;DHT22;146;53.448;10.228;2023-04-01T09:21:37;8.40;1.00
318;DHT22;146;53.448;10.228;2023-04-01T09:24:41;8.40;1.00
318;DHT22;146;53.448;10.228;2023-04-01T09:27:16;8.40;1.00
318;DHT22;146;53.448;10.228;2023-04-01T09:33:59;8.50;1.00
318;DHT22;146;53.448;10.228;2023-04-01T09:40:52;8.50;1.00
318;DHT22;146;53.448;10.228;2023-04-01T09:46:41;8.50;1.00
318;DHT22;146;53.448;10.228;2023-04-01T09:53:13;8.60;1.00
318;DHT22;146;53.448;10.228;2023-04-01T09:56:44;8.50;1.00
318;DHT22;146;53.448;10.228;2023-04-01T10:18:09;8.60;1.00
318;DHT22;146;53.448;10.228;2023-04-01T10:21:55;8.60;1.00
318;DHT22;146;53.448;10.228;2023-04-01T10:30:56;8.60;1.00
318;DHT22;146;53.448;10.228;2023-04-01T10:36:56;8.60;1.00
318;DHT22;146;53.448;10.228;2023-04-01T10:49:32;8.60;1.00
318;DHT22;146;53.448;10.228;2023-04-01T10:52:56;8.60;1.00
318;DHT22;146;53.448;10.228;2023-04-01T10:59:15;8.60;1.00
318;DHT22;146;53.448;10.228;2023-04-01T11:08:41;8.90;1.00
318;DHT22;146;53.448;10.228;2023-04-01T11:11:47;8.90;1.00
318;DHT22;146;53.448;10.228;2023-04-01T11:20:57;9.20;1.00
318;DHT22;146;53.448;10.228;2023-04-01T11:23:43;9.10;1.00
318;DHT22;146;53.448;10.228;2023-04-01T11:26:22;9.10;1.00
318;DHT22;146;53.448;10.228;2023-04-01T11:32:19;9.00;1.00
318;DHT22;146;53.448;10.228;2023-04-01T11:35:00;8.90;1.00
318;DHT22;146;53.448;10.228;2023-04-01T11:37:38;9.00;1.00
318;DHT22;146;53.448;10.228;2023-04-01T11:40:22;8.90;1.00
318;DHT22;146;53.448;10.228;2023-04-01T11:42:58;8.90;1.00
318;DHT22;146;53.448;10.228;2023-04-01T11:45:37;8.90;1.00
318;DHT22;146;53.448;10.228;2023-04-01T11:48:27;8.90;1.00
318;DHT22;146;53.448;10.228;2023-04-01T11:51:18;8.90;1.00
318;DHT22;146;53.448;10.228;2023-04-01T11:53:52;8.80;1.00
318;DHT22;146;53.448;10.228;2023-04-01T11:56:57;8.80;1.00
318;DHT22;146;53.448;10.228;2023-04-01T12:02:51;8.80;1.00
318;DHT22;146;53.448;10.228;2023-04-01T12:05:43;8.70;1.00
318;DHT22;146;53.448;10.228;2023-04-01T12:08:25;8.70;1.00
318;DHT22;146;53.448;10.228;2023-04-01T12:11:00;8.70;1.00
318;DHT22;146;53.448;10.228;2023-04-01T12:13:39;8.70;1.00
318;DHT22;146;53.448;10.228;2023-04-01T12:19:23;8.70;1.00
318;DHT22;146;53.448;10.228;2023-04-01T12:22:17;8.70;1.00
318;DHT22;146;53.448;10.228;2023-04-01T12:24:54;8.80;1.00
318;DHT22;146;53.448;10.228;2023-04-01T12:27:42;8.70;1.00
318;DHT22;146;53.448;10.228;2023-04-01T12:30:41;8.70;1.00
318;DHT22;146;53.448;10.228;2023-04-01T12:33:27;8.70;1.00
318;DHT22;146;53.448;10.228;2023-04-01T12:36:05;8.70;1.00
318;DHT22;146;53.448;10.228;2023-04-01T12:38:57;8.60;1.00
318;DHT22;146;53.448;10.228;2023-04-01T12:41:45;8.60;1.00
318;DHT22;146;53.448;10.228;2023-04-01T12:44:46;8.60;1.00
318;DHT22;146;53.448;10.228;2023-04-01T12:47:33;8.50;1.00
318;DHT22;146;53.448;10.228;2023-04-01T12:50:26;8.40;1.00
318;DHT22;146;53.448;10.228;2023-04-01T12:53:11;8.40;1.00
318;DHT22;146;53.448;10.228;2023-04-01T12:55:42;8.30;1.00
318;DHT22;146;53.448;10.228;2023-04-01T12:58:48;8.30;1.00
318;DHT22;146;53.448;10.228;2023-04-01T13:01:29;8.40;1.00
318;DHT22;146;53.448;10.228;2023-04-01T13:07:27;8.30;1.00
318;DHT22;146;53.448;10.228;2023-04-01T13:10:02;8.30;1.00
318;DHT22;146;53.448;10.228;2023-04-01T13:12:48;8.20;1.00
318;DHT22;146;53.448;10.228;2023-04-01T13:15:28;8.10;1.00
318;DHT22;146;53.448;10.228;2023-04-01T13:18:04;8.00;1.00
318;DHT22;146;53.448;10.228;2023-04-01T13:20:43;8.10;1.00
318;DHT22;146;53.448;10.228;2023-04-01T13:23:24;8.00;1.00
318;DHT22;146;53.448;10.228;2023-04-01T13:26:11;7.90;1.00
318;DHT22;146;53.448;10.228;2023-04-01T13:28:46;7.90;1.00
318;DHT22;146;53.448;10.228;2023-04-01T13:37:11;7.90;1.00
318;DHT22;146;53.448;10.228;2023-04-01T13:42:47;7.70;1.00
318;DHT22;146;53.448;10.228;2023-04-01T13:45:17;7.70;1.00
318;DHT22;146;53.448;10.228;2023-04-01T13:48:06;7.70;1.00
318;DHT22;146;53.448;10.228;2023-04-01T13:50:48;7.70;1.00
318;DHT22;146;53.448;10.228;2023-04-01T13:54:01;7.70;1.00
318;DHT22;146;53.448;10.228;2023-04-01T13:56:42;7.60;1.00
318;DHT22;146;53.448;10.228;2023-04-01T14:06:03;7.60;1.00
318;DHT22;146;53.448;10.228;2023-04-01T14:09:11;7.60;1.00
318;DHT22;146;53.448;10.228;2023-04-01T14:11:53;7.60;1.00
318;DHT22;146;53.448;10.228;2023-04-01T14:14:31;7.70;1.00
318;DHT22;146;53.448;10.228;2023-04-01T14:17:20;7.70;1.00
318;DHT22;146;53.448;10.228;2023-04-01T14:20:25;7.80;1.00
318;DHT22;146;53.448;10.228;2023-04-01T14:26:13;7.90;1.00
318;DHT22;146;53.448;10.228;2023-04-01T14:28:56;7.90;1.00
318;DHT22;146;53.448;10.228;2023-04-01T14:32:00;7.80;1.00
318;DHT22;146;53.448;10.228;2023-04-01T14:37:47;7.80;1.00
318;DHT22;146;53.448;10.228;2023-04-01T14:40:28;7.80;1.00
318;DHT22;146;53.448;10.228;2023-04-01T14:43:31;7.80;1.00
318;DHT22;146;53.448;10.228;2023-04-01T14:46:35;7.80;1.00
318;DHT22;146;53.448;10.228;2023-04-01T14:49:17;7.70;1.00
318;DHT22;146;53.448;10.228;2023-04-01T14:51:51;7.70;1.00
318;DHT22;146;53.448;10.228;2023-04-01T14:54:31;7.70;1.00
318;DHT22;146;53.448;10.228;2023-04-01T14:57:05;7.60;1.00
318;DHT22;146;53.448;10.228;2023-04-01T14:59:39;7.60;1.00
318;DHT22;146;53.448;10.228;2023-04-01T15:02:33;7.60;1.00
318;DHT22;146;53.448;10.228;2023-04-01T15:05:10;7.70;1.00
318;DHT22;146;53.448;10.228;2023-04-01T15:08:10;7.60;1.00
318;DHT22;146;53.448;10.228;2023-04-01T15:11:14;7.70;1.00
318;DHT22;146;53.448;10.228;2023-04-01T15:14:04;7.50;1.00
318;DHT22;146;53.448;10.228;2023-04-01T15:16:44;7.50;1.00
318;DHT22;146;53.448;10.228;2023-04-01T15:19:22;7.50;1.00
318;DHT22;146;53.448;10.228;2023-04-01T15:22:22;7.50;1.00
318;DHT22;146;53.448;10.228;2023-04-01T15:25:05;7.30;1.00
318;DHT22;146;53.448;10.228;2023-04-01T15:27:48;7.30;1.00
318;DHT22;146;53.448;10.228;2023-04-01T15:30:23;7.30;1.00
318;DHT22;146;53.448;10.228;2023-04-01T15:33:21;7.40;1.00
318;DHT22;146;53.448;10.228;2023-04-01T15:36:02;7.40;1.00
318;DHT22;146;53.448;10.228;2023-04-01T15:38:34;7.30;1.00
318;DHT22;146;53.448;10.228;2023-04-01T15:41:10;7.40;1.00
318;DHT22;146;53.448;10.228;2023-04-01T15:43:41;7.50;1.00
318;DHT22;146;53.448;10.228;2023-04-01T15:46:29;7.50;1.00
318;DHT22;146;53.448;10.228;2023-04-01T15:49:18;7.40;1.00
318;DHT22;146;53.448;10.228;2023-04-01T15:52:02;7.20;1.00
318;DHT22;146;53.448;10.228;2023-04-01T15:54:47;7.10;1.00
318;DHT22;146;53.448;10.228;2023-04-01T15:57:33;7.10;1.00
318;DHT22;146;53.448;10.228;2023-04-01T16:00:25;7.10;1.00
318;DHT22;146;53.448;10.228;2023-04-01T16:03:15;7.00;1.00
318;DHT22;146;53.448;10.228;2023-04-01T16:06:14;7.00;1.00
318;DHT22;146;53.448;10.228;2023-04-01T16:09:15;7.10;1.00
318;DHT22;146;53.448;10.228;2023-04-01T16:11:51;6.90;1.00
318;DHT22;146;53.448;10.228;2023-04-01T16:14:31;6.90;1.00
318;DHT22;146;53.448;10.228;2023-04-01T16:17:08;6.90;1.00
318;DHT22;146;53.448;10.228;2023-04-01T16:19:49;6.90;1.00
318;DHT22;146;53.448;10.228;2023-04-01T16:22:22;6.90;1.00
318;DHT22;146;53.448;10.228;2023-04-01T16:24:58;6.90;1.00
318;DHT22;146;53.448;10.228;2023-04-01T16:27:33;6.80;1.00
318;DHT22;146;53.448;10.228;2023-04-01T16:30:03;6.80;1.00
318;DHT22;146;53.448;10.228;2023-04-01T16:32:45;6.80;1.00
318;DHT22;146;53.448;10.228;2023-04-01T16:35:31;6.90;1.00
318;DHT22;146;53.448;10.228;2023-04-01T16:38:07;6.90;1.00
318;DHT22;146;53.448;10.228;2023-04-01T16:40:44;6.90;1.00
318;DHT22;146;53.448;10.228;2023-04-01T16:43:21;6.90;1.00
318;DHT22;146;53.448;10.228;2023-04-01T16:46:15;6.90;1.00
318;DHT22;146;53.448;10.228;2023-04-01T16:48:57;6.90;1.00
318;DHT22;146;53.448;10.228;2023-04-01T16:51:30;6.80;1.00
318;DHT22;146;53.448;10.228;2023-04-01T16:54:05;6.80;1.00
318;DHT22;146;53.448;10.228;2023-04-01T16:56:39;6.70;1.00
318;DHT22;146;53.448;10.228;2023-04-01T16:59:16;6.70;1.00
318;DHT22;146;53.448;10.228;2023-04-01T17:01:51;6.70;1.00
318;DHT22;146;53.448;10.228;2023-04-01T17:04:27;6.60;1.00
318;DHT22;146;53.448;10.228;2023-04-01T17:07:06;6.60;1.00
318;DHT22;146;53.448;10.228;2023-04-01T17:09:47;6.50;1.00
318;DHT22;146;53.448;10.228;2023-04-01T17:12:24;6.50;1.00
318;DHT22;146;53.448;10.228;2023-04-01T17:14:57;6.60;1.00
318;DHT22;146;53.448;10.228;2023-04-01T17:17:34;6.50;1.00
318;DHT22;146;53.448;10.228;2023-04-01T17:20:24;6.50;1.00
318;DHT22;146;53.448;10.228;2023-04-01T17:22:54;6.50;1.00
318;DHT22;146;53.448;10.228;2023-04-01T17:25:37;6.40;1.00
318;DHT22;146;53.448;10.228;2023-04-01T17:28:14;6.40;1.00
318;DHT22;146;53.448;10.228;2023-04-01T17:30:52;6.40;1.00
318;DHT22;146;53.448;10.228;2023-04-01T17:33:43;6.30;1.00
318;DHT22;146;53.448;10.228;2023-04-01T17:36:23;6.40;1.00
318;DHT22;146;53.448;10.228;2023-04-01T17:39:05;6.40;1.00
318;DHT22;146;53.448;10.228;2023-04-01T17:41:42;6.40;1.00
318;DHT22;146;53.448;10.228;2023-04-01T17:44:25;6.40;1.00
318;DHT22;146;53.448;10.228;2023-04-01T17:47:13;6.50;1.00
318;DHT22;146;53.448;10.228;2023-04-01T17:49:51;6.40;1.00
318;DHT22;146;53.448;10.228;2023-04-01T17:52:25;6.40;1.00
318;DHT22;146;53.448;10.228;2023-04-01T17:55:03;6.30;1.00
318;DHT22;146;53.448;10.228;2023-04-01T17:57:54;6.30;1.00
318;DHT22;146;53.448;10.228;2023-04-01T18:00:28;6.30;1.00
318;DHT22;146;53.448;10.228;2023-04-01T18:03:05;6.30;1.00
318;DHT22;146;53.448;10.228;2023-04-01T18:05:48;6.30;1.00
318;DHT22;146;53.448;10.228;2023-04-01T18:08:43;6.30;1.00
318;DHT22;146;53.448;10.228;2023-04-01T18:11:18;6.20;1.00
318;DHT22;146;53.448;10.228;2023-04-01T18:14:08;6.20;1.00
318;DHT22;146;53.448;10.228;2023-04-01T18:16:53;6.10;1.00
318;DHT22;146;53.448;10.228;2023-04-01T18:19:30;6.10;1.00
318;DHT22;146;53.448;10.228;2023-04-01T18:22:10;6.20;1.00
318;DHT22;146;53.448;10.228;2023-04-01T18:24:47;6.20;1.00
318;DHT22;146;53.448;10.228;2023-04-01T18:27:21;6.20;1.00
318;DHT22;146;53.448;10.228;2023-04-01T18:29:51;6.20;1.00
318;DHT22;146;53.448;10.228;2023-04-01T18:32:27;6.20;1.00
318;DHT22;146;53.448;10.228;2023-04-01T18:35:02;6.20;1.00
318;DHT22;146;53.448;10.228;2023-04-01T18:37:49;6.30;1.00
318;DHT22;146;53.448;10.228;2023-04-01T18:40:22;6.30;1.00
318;DHT22;146;53.448;10.228;2023-04-01T18:43:02;6.10;1.00
318;DHT22;146;53.448;10.228;2023-04-01T18:45:41;6.10;1.00
318;DHT22;146;53.448;10.228;2023-04-01T18:48:37;6.10;1.00
318;DHT22;146;53.448;10.228;2023-04-01T18:51:12;6.10;1.00
318;DHT22;146;53.448;10.228;2023-04-01T18:53:44;6.00;1.00
318;DHT22;146;53.448;10.228;2023-04-01T18:56:24;6.00;1.00
318;DHT22;146;53.448;10.228;2023-04-01T18:59:03;5.90;1.00
318;DHT22;146;53.448;10.228;2023-04-01T19:01:42;5.90;1.00
318;DHT22;146;53.448;10.228;2023-04-01T19:04:17;5.80;1.00
318;DHT22;146;53.448;10.228;2023-04-01T19:06:48;5.80;1.00
318;DHT22;146;53.448;10.228;2023-04-01T19:09:24;5.70;1.00
318;DHT22;146;53.448;10.228;2023-04-01T19:15:08;5.70;1.00
318;DHT22;146;53.448;10.228;2023-04-01T19:17:57;5.70;1.00
318;DHT22;146;53.448;10.228;2023-04-01T19:20:30;5.70;1.00
318;DHT22;146;53.448;10.228;2023-04-01T19:26:22;5.80;1.00
318;DHT22;146;53.448;10.228;2023-04-01T19:28:59;5.90;1.00
318;DHT22;146;53.448;10.228;2023-04-01T19:31:50;5.90;1.00
318;DHT22;146;53.448;10.228;2023-04-01T19:34:41;5.70;1.00
318;DHT22;146;53.448;10.228;2023-04-01T19:37:22;5.70;1.00
318;DHT22;146;53.448;10.228;2023-04-01T19:39:58;5.70;1.00
318;DHT22;146;53.448;10.228;2023-04-01T19:42:36;5.80;1.00
318;DHT22;146;53.448;10.228;2023-04-01T19:45:21;5.80;1.00
318;DHT22;146;53.448;10.228;2023-04-01T19:48:00;5.70;1.00
318;DHT22;146;53.448;10.228;2023-04-01T19:50:48;5.50;1.00
318;DHT22;146;53.448;10.228;2023-04-01T19:53:40;5.50;1.00
318;DHT22;146;53.448;10.228;2023-04-01T19:56:19;5.40;1.00
318;DHT22;146;53.448;10.228;2023-04-01T19:58:55;5.30;1.00
318;DHT22;146;53.448;10.228;2023-04-01T20:01:33;5.30;1.00
318;DHT22;146;53.448;10.228;2023-04-01T20:04:24;5.20;1.00
318;DHT22;146;53.448;10.228;2023-04-01T20:06:56;5.20;1.00
318;DHT22;146;53.448;10.228;2023-04-01T20:09:46;5.20;1.00
318;DHT22;146;53.448;10.228;2023-04-01T20:12:25;5.30;1.00
318;DHT22;146;53.448;10.228;2023-04-01T20:15:03;5.40;1.00
318;DHT22;146;53.448;10.228;2023-04-01T20:17:44;5.40;1.00
318;DHT22;146;53.448;10.228;2023-04-01T20:20:20;5.30;1.00
318;DHT22;146;53.448;10.228;2023-04-01T20:23:06;5.30;1.00